Time,TemperatureF,DewpointF,PressureIn,WindDirection,WindDirectionDegrees,WindSpeedMPH,WindSpeedGustMPH,Humidity,HourlyPrecipIn,Conditions,Clouds,dailyrainin,SoftwareType,DateUTC
2013-09-14 00:00:00,57.5,49.6,29.99,SSE,148,4.0,4.0,75,0.00,,,0.00,Wunderground v.1.15,2013-09-14 05:00:00,
2013-09-14 00:02:00,57.4,49.2,29.99,SE,141,4.0,6.0,74,0.00,,,0.00,Wunderground v.1.15,2013-09-14 05:02:00,
2013-09-14 00:04:00,57.4,50.2,29.99,SE,136,5.0,6.0,77,0.00,,,0.00,Wunderground v.1.15,2013-09-14 05:04:00,
2013-09-14 00:08:00,57.3,49.8,29.99,SE,141,5.0,6.0,76,0.00,,,0.00,Wunderground v.1.15,2013-09-14 05:08:00,
2013-09-14 00:10:00,57.3,49.8,29.99,SSE,155,4.0,6.0,76,0.00,,,0.00,Wunderground v.1.15,2013-09-14 05:10:00,
2013-09-14 00:12:00,57.2,49.3,29.99,SSW,197,4.0,6.0,75,0.00,,,0.00,Wunderground v.1.15,2013-09-14 05:12:00,
2013-09-14 00:14:00,57.2,49.3,29.99,SE,136,4.0,6.0,75,0.00,,,0.00,Wunderground v.1.15,2013-09-14 05:14:00,
2013-09-14 00:20:00,57.0,49.2,29.99,SSE,149,4.0,6.0,75,0.00,,,0.00,Wunderground v.1.15,2013-09-14 05:20:00,
2013-09-14 00:22:00,57.0,49.5,29.99,SE,129,4.0,6.0,76,0.00,,,0.00,Wunderground v.1.15,2013-09-14 05:22:00,
2013-09-14 00:28:00,56.9,49.8,29.99,SSE,150,4.0,6.0,77,0.00,,,0.00,Wunderground v.1.15,2013-09-14 05:28:00,
2013-09-14 00:30:00,56.9,49.4,29.99,SE,129,4.0,4.0,76,0.00,,,0.00,Wunderground v.1.15,2013-09-14 05:30:00,
2013-09-14 00:32:00,56.8,49.3,29.99,SE,142,4.0,4.0,76,0.00,,,0.00,Wunderground v.1.15,2013-09-14 05:32:00,
2013-09-14 00:34:00,56.8,49.3,29.99,SE,139,4.0,4.0,76,0.00,,,0.00,Wunderground v.1.15,2013-09-14 05:34:00,
2013-09-14 00:38:00,56.8,49.7,29.99,SSE,155,4.0,5.0,77,0.00,,,0.00,Wunderground v.1.15,2013-09-14 05:38:00,
2013-09-14 00:40:00,56.8,49.0,29.99,SE,134,4.0,6.0,75,0.00,,,0.00,Wunderground v.1.15,2013-09-14 05:40:00,
2013-09-14 00:42:00,56.8,49.3,29.99,SSE,155,5.0,6.0,76,0.00,,,0.00,Wunderground v.1.15,2013-09-14 05:42:00,
2013-09-14 00:46:00,56.8,48.6,29.99,SSE,150,5.0,6.0,74,0.00,,,0.00,Wunderground v.1.15,2013-09-14 05:46:00,
2013-09-14 00:47:00,56.8,48.6,29.99,South,173,5.0,6.0,74,0.00,,,0.00,Wunderground v.1.15,2013-09-14 05:47:00,
2013-09-14 00:52:00,56.7,48.5,29.99,SE,142,5.0,5.0,74,0.00,,,0.00,Wunderground v.1.15,2013-09-14 05:52:00,
2013-09-14 00:54:00,56.6,48.0,29.99,SE,139,5.0,5.0,73,0.00,,,0.00,Wunderground v.1.15,2013-09-14 05:54:00,
2013-09-14 00:56:00,56.6,48.4,29.99,SSE,147,5.0,5.0,74,0.00,,,0.00,Wunderground v.1.15,2013-09-14 05:56:00,
2013-09-14 00:58:00,56.5,48.7,29.99,SE,138,5.0,5.0,75,0.00,,,0.00,Wunderground v.1.15,2013-09-14 05:58:00,
2013-09-14 01:00:00,56.5,48.7,29.99,SE,143,5.0,5.0,75,0.00,,,0.00,Wunderground v.1.15,2013-09-14 06:00:00,
2013-09-14 01:02:00,56.5,48.7,29.99,SE,135,5.0,7.0,75,0.00,,,0.00,Wunderground v.1.15,2013-09-14 06:02:00,
2013-09-14 01:06:00,56.3,48.5,29.99,SSE,150,5.0,7.0,75,0.00,,,0.00,Wunderground v.1.15,2013-09-14 06:06:00,
2013-09-14 01:07:00,56.2,48.0,29.99,SE,142,4.0,7.0,74,0.00,,,0.00,Wunderground v.1.15,2013-09-14 06:07:00,
2013-09-14 01:09:00,56.2,48.4,29.99,ESE,118,4.0,7.0,75,0.00,,,0.00,Wunderground v.1.15,2013-09-14 06:09:00,
2013-09-14 01:12:00,56.2,48.7,29.99,SE,136,4.0,7.0,76,0.00,,,0.00,Wunderground v.1.15,2013-09-14 06:12:00,
2013-09-14 01:14:00,56.2,48.4,29.99,SSE,147,5.0,7.0,75,0.00,,,0.00,Wunderground v.1.15,2013-09-14 06:14:00,
2013-09-14 01:16:00,56.2,48.4,29.99,SSE,168,5.0,7.0,75,0.00,,,0.00,Wunderground v.1.15,2013-09-14 06:16:00,
2013-09-14 01:18:00,56.2,48.7,29.99,SSE,150,5.0,7.0,76,0.00,,,0.00,Wunderground v.1.15,2013-09-14 06:18:00,
2013-09-14 01:22:00,56.1,48.3,29.99,South,179,5.0,7.0,75,0.00,,,0.00,Wunderground v.1.15,2013-09-14 06:22:00,
2013-09-14 01:28:00,56.2,48.7,30.00,SSE,148,4.0,7.0,76,0.00,,,0.00,Wunderground v.1.15,2013-09-14 06:28:00,
2013-09-14 01:29:00,56.1,48.3,30.00,SE,145,4.0,7.0,75,0.00,,,0.00,Wunderground v.1.15,2013-09-14 06:29:00,
2013-09-14 01:31:00,56.1,48.3,30.00,SSE,162,4.0,7.0,75,0.00,,,0.00,Wunderground v.1.15,2013-09-14 06:31:00,
2013-09-14 01:34:00,56.1,48.3,29.99,SSE,166,4.0,7.0,75,0.00,,,0.00,Wunderground v.1.15,2013-09-14 06:34:00,
2013-09-14 01:36:00,56.1,48.6,30.00,SSE,162,4.0,7.0,76,0.00,,,0.00,Wunderground v.1.15,2013-09-14 06:36:00,
2013-09-14 01:38:00,56.2,48.7,29.99,SSE,158,3.0,7.0,76,0.00,,,0.00,Wunderground v.1.15,2013-09-14 06:38:00,
2013-09-14 01:40:00,56.1,48.3,29.99,SE,143,3.0,7.0,75,0.00,,,0.00,Wunderground v.1.15,2013-09-14 06:40:00,
2013-09-14 01:42:00,56.1,48.3,29.99,SSE,167,3.0,7.0,75,0.00,,,0.00,Wunderground v.1.15,2013-09-14 06:42:00,
2013-09-14 01:46:00,56.0,48.9,29.99,SE,145,3.0,7.0,77,0.00,,,0.00,Wunderground v.1.15,2013-09-14 06:46:00,
2013-09-14 01:51:00,56.0,48.5,30.00,SSE,155,3.0,7.0,76,0.00,,,0.00,Wunderground v.1.15,2013-09-14 06:51:00,
2013-09-14 01:53:00,56.0,48.5,30.00,SSE,155,3.0,7.0,76,0.00,,,0.00,Wunderground v.1.15,2013-09-14 06:53:00,
2013-09-14 01:56:00,56.1,48.6,30.00,SE,141,3.0,7.0,76,0.00,,,0.00,Wunderground v.1.15,2013-09-14 06:56:00,
2013-09-14 02:00:00,56.0,48.5,30.00,SE,134,2.0,7.0,76,0.00,,,0.00,Wunderground v.1.15,2013-09-14 07:00:00,
2013-09-14 02:02:00,55.9,48.1,30.00,SE,141,2.0,7.0,75,0.00,,,0.00,Wunderground v.1.15,2013-09-14 07:02:00,
2013-09-14 02:04:00,55.9,48.4,30.00,SE,143,2.0,7.0,76,0.00,,,0.00,Wunderground v.1.15,2013-09-14 07:04:00,
2013-09-14 02:08:00,55.9,48.4,30.00,SSE,165,2.0,7.0,76,0.00,,,0.00,Wunderground v.1.15,2013-09-14 07:08:00,
2013-09-14 02:10:00,55.9,48.4,29.99,South,190,3.0,3.0,76,0.00,,,0.00,Wunderground v.1.15,2013-09-14 07:10:00,
2013-09-14 02:14:00,56.0,48.5,30.00,SE,135,3.0,7.0,76,0.00,,,0.00,Wunderground v.1.15,2013-09-14 07:14:00,
2013-09-14 02:20:00,56.0,47.8,29.99,SE,129,3.0,7.0,74,0.00,,,0.00,Wunderground v.1.15,2013-09-14 07:20:00,
2013-09-14 02:22:00,56.0,47.8,29.99,SSE,159,3.0,7.0,74,0.00,,,0.00,Wunderground v.1.15,2013-09-14 07:22:00,
2013-09-14 02:24:00,56.0,48.2,29.99,SE,134,4.0,7.0,75,0.00,,,0.00,Wunderground v.1.15,2013-09-14 07:24:00,
2013-09-14 02:26:00,56.0,48.2,29.99,South,176,4.0,7.0,75,0.00,,,0.00,Wunderground v.1.15,2013-09-14 07:26:00,
2013-09-14 02:28:00,56.1,48.6,29.99,SSE,155,4.0,7.0,76,0.00,,,0.00,Wunderground v.1.15,2013-09-14 07:28:00,
2013-09-14 02:30:00,56.1,47.9,29.99,SE,145,4.0,4.0,74,0.00,,,0.00,Wunderground v.1.15,2013-09-14 07:30:00,
2013-09-14 02:32:00,56.1,48.3,29.99,SSE,160,4.0,7.0,75,0.00,,,0.00,Wunderground v.1.15,2013-09-14 07:32:00,
2013-09-14 02:36:00,56.2,48.0,29.99,SSE,149,4.0,7.0,74,0.00,,,0.00,Wunderground v.1.15,2013-09-14 07:36:00,
2013-09-14 02:40:00,56.3,48.1,29.99,SSE,160,4.0,7.0,74,0.00,,,0.00,Wunderground v.1.15,2013-09-14 07:40:00,
2013-09-14 02:42:00,56.3,48.5,29.99,ESE,120,4.0,7.0,75,0.00,,,0.00,Wunderground v.1.15,2013-09-14 07:42:00,
2013-09-14 02:44:00,56.3,48.1,29.99,SE,134,4.0,7.0,74,0.00,,,0.00,Wunderground v.1.15,2013-09-14 07:44:00,
2013-09-14 02:46:00,56.3,48.5,29.99,South,170,4.0,7.0,75,0.00,,,0.00,Wunderground v.1.15,2013-09-14 07:46:00,
2013-09-14 02:50:00,56.3,48.1,29.99,SSE,159,4.0,7.0,74,0.00,,,0.00,Wunderground v.1.15,2013-09-14 07:50:00,
2013-09-14 02:54:00,56.3,47.8,29.99,SSW,208,4.0,7.0,73,0.00,,,0.00,Wunderground v.1.15,2013-09-14 07:54:00,
2013-09-14 02:56:00,56.3,48.1,29.99,South,187,4.0,7.0,74,0.00,,,0.00,Wunderground v.1.15,2013-09-14 07:56:00,
2013-09-14 02:58:00,56.3,48.1,29.99,SE,132,4.0,7.0,74,0.00,,,0.00,Wunderground v.1.15,2013-09-14 07:58:00,
2013-09-14 03:00:00,56.3,48.1,29.99,SSW,204,4.0,4.0,74,0.00,,,0.00,Wunderground v.1.15,2013-09-14 08:00:00,
2013-09-14 03:06:00,56.1,48.3,29.99,SE,146,3.0,7.0,75,0.00,,,0.00,Wunderground v.1.15,2013-09-14 08:06:00,
2013-09-14 03:08:00,56.1,47.9,29.99,SE,143,3.0,7.0,74,0.00,,,0.00,Wunderground v.1.15,2013-09-14 08:08:00,
2013-09-14 03:10:00,56.0,47.8,29.99,SE,136,3.0,3.0,74,0.00,,,0.00,Wunderground v.1.15,2013-09-14 08:10:00,
2013-09-14 03:12:00,55.9,47.7,29.99,SSE,148,3.0,7.0,74,0.00,,,0.00,Wunderground v.1.15,2013-09-14 08:12:00,
2013-09-14 03:16:00,55.6,47.4,29.99,SW,221,2.0,7.0,74,0.00,,,0.00,Wunderground v.1.15,2013-09-14 08:16:00,
2013-09-14 03:20:00,55.1,47.3,29.99,SSW,207,1.0,7.0,75,0.00,,,0.00,Wunderground v.1.15,2013-09-14 08:20:00,
2013-09-14 03:22:00,54.9,47.5,29.99,SSE,152,1.0,7.0,76,0.00,,,0.00,Wunderground v.1.15,2013-09-14 08:22:00,
2013-09-14 03:26:00,54.6,47.2,29.99,South,188,1.0,7.0,76,0.00,,,0.00,Wunderground v.1.15,2013-09-14 08:26:00,
2013-09-14 03:28:00,54.5,47.4,29.99,South,190,1.0,7.0,77,0.00,,,0.00,Wunderground v.1.15,2013-09-14 08:28:00,
2013-09-14 03:30:00,54.5,47.4,29.99,SW,219,1.0,7.0,77,0.00,,,0.00,Wunderground v.1.15,2013-09-14 08:30:00,
2013-09-14 03:32:00,54.4,47.7,29.99,SSW,205,2.0,7.0,78,0.00,,,0.00,Wunderground v.1.15,2013-09-14 08:32:00,
2013-09-14 03:36:00,54.3,47.2,29.99,SW,233,2.0,7.0,77,0.00,,,0.00,Wunderground v.1.15,2013-09-14 08:36:00,
2013-09-14 03:40:00,54.1,47.0,29.98,SW,232,2.0,2.0,77,0.00,,,0.00,Wunderground v.1.15,2013-09-14 08:40:00,
2013-09-14 03:42:00,54.0,47.0,29.98,SSW,200,2.0,3.0,77,0.00,,,0.00,Wunderground v.1.15,2013-09-14 08:42:00,
2013-09-14 03:44:00,53.9,47.2,29.98,SW,226,2.0,7.0,78,0.00,,,0.00,Wunderground v.1.15,2013-09-14 08:44:00,
2013-09-14 03:46:00,53.8,47.1,29.99,SW,224,2.0,7.0,78,0.00,,,0.00,Wunderground v.1.15,2013-09-14 08:46:00,
2013-09-14 03:50:00,53.6,46.9,29.98,ESE,112,2.0,7.0,78,0.00,,,0.00,Wunderground v.1.15,2013-09-14 08:50:00,
2013-09-14 03:52:00,53.4,46.7,29.99,WSW,252,2.0,7.0,78,0.00,,,0.00,Wunderground v.1.15,2013-09-14 08:52:00,
2013-09-14 03:56:00,53.3,47.0,29.99,SW,226,2.0,7.0,79,0.00,,,0.00,Wunderground v.1.15,2013-09-14 08:56:00,
2013-09-14 03:58:00,53.3,47.0,29.99,SW,218,2.0,7.0,79,0.00,,,0.00,Wunderground v.1.15,2013-09-14 08:58:00,
2013-09-14 04:00:00,53.1,46.4,29.99,SW,233,2.0,2.0,78,0.00,,,0.00,Wunderground v.1.15,2013-09-14 09:00:00,
2013-09-14 04:03:00,52.8,46.5,29.98,SSW,198,2.0,7.0,79,0.00,,,0.00,Wunderground v.1.15,2013-09-14 09:03:00,
2013-09-14 04:05:00,52.8,46.5,29.98,SW,218,1.0,7.0,79,0.00,,,0.00,Wunderground v.1.15,2013-09-14 09:05:00,
2013-09-14 04:10:00,52.6,46.3,29.98,SSW,201,1.0,7.0,79,0.00,,,0.00,Wunderground v.1.15,2013-09-14 09:10:00,
2013-09-14 04:12:00,52.5,46.2,29.98,SSW,210,2.0,7.0,79,0.00,,,0.00,Wunderground v.1.15,2013-09-14 09:12:00,
2013-09-14 04:14:00,52.4,46.4,29.98,SW,235,2.0,7.0,80,0.00,,,0.00,Wunderground v.1.15,2013-09-14 09:14:00,
2013-09-14 04:20:00,52.1,46.4,29.98,SW,218,2.0,2.0,81,0.00,,,0.00,Wunderground v.1.15,2013-09-14 09:20:00,
2013-09-14 04:23:00,52.0,46.3,29.98,South,188,2.0,7.0,81,0.00,,,0.00,Wunderground v.1.15,2013-09-14 09:23:00,
2013-09-14 04:27:00,51.9,46.6,29.98,ESE,117,2.0,7.0,82,0.00,,,0.00,Wunderground v.1.15,2013-09-14 09:27:00,
2013-09-14 04:30:00,51.9,46.6,29.98,SW,231,2.0,2.0,82,0.00,,,0.00,Wunderground v.1.15,2013-09-14 09:30:00,
2013-09-14 04:34:00,51.8,46.5,29.98,South,188,2.0,7.0,82,0.00,,,0.00,Wunderground v.1.15,2013-09-14 09:34:00,
2013-09-14 04:36:00,51.7,46.4,29.98,SSW,211,2.0,7.0,82,0.00,,,0.00,Wunderground v.1.15,2013-09-14 09:36:00,
2013-09-14 04:40:00,51.6,46.3,29.98,SE,137,1.0,7.0,82,0.00,,,0.00,Wunderground v.1.15,2013-09-14 09:40:00,
2013-09-14 04:42:00,51.6,46.6,29.98,SW,219,1.0,7.0,83,0.00,,,0.00,Wunderground v.1.15,2013-09-14 09:42:00,
2013-09-14 04:45:00,51.5,46.5,29.98,SSW,200,1.0,7.0,83,0.00,,,0.00,Wunderground v.1.15,2013-09-14 09:45:00,
2013-09-14 04:47:00,51.6,46.6,29.98,SW,228,1.0,7.0,83,0.00,,,0.00,Wunderground v.1.15,2013-09-14 09:47:00,
2013-09-14 04:50:00,51.7,47.0,29.98,SW,232,1.0,7.0,84,0.00,,,0.00,Wunderground v.1.15,2013-09-14 09:50:00,
2013-09-14 04:52:00,51.8,47.1,29.98,SW,232,1.0,7.0,84,0.00,,,0.00,Wunderground v.1.15,2013-09-14 09:52:00,
2013-09-14 04:56:00,52.0,47.0,29.97,SW,215,2.0,7.0,83,0.00,,,0.00,Wunderground v.1.15,2013-09-14 09:56:00,
2013-09-14 04:58:00,52.0,47.0,29.97,South,180,2.0,7.0,83,0.00,,,0.00,Wunderground v.1.15,2013-09-14 09:58:00,
2013-09-14 05:02:00,52.2,47.5,29.97,SSE,158,2.0,7.0,84,0.00,,,0.00,Wunderground v.1.15,2013-09-14 10:02:00,
2013-09-14 05:04:00,52.2,47.2,29.97,SSE,163,2.0,7.0,83,0.00,,,0.00,Wunderground v.1.15,2013-09-14 10:04:00,
2013-09-14 05:07:00,52.1,47.1,29.97,SSE,149,1.0,7.0,83,0.00,,,0.00,Wunderground v.1.15,2013-09-14 10:07:00,
2013-09-14 05:09:00,52.2,46.5,29.97,SW,224,2.0,7.0,81,0.00,,,0.00,Wunderground v.1.15,2013-09-14 10:09:00,
2013-09-14 05:12:00,52.2,46.9,29.97,SW,214,2.0,7.0,82,0.00,,,0.00,Wunderground v.1.15,2013-09-14 10:12:00,
2013-09-14 05:16:00,52.2,46.5,29.97,SSW,212,2.0,7.0,81,0.00,,,0.00,Wunderground v.1.15,2013-09-14 10:16:00,
2013-09-14 05:18:00,52.2,46.2,29.97,SW,232,2.0,7.0,80,0.00,,,0.00,Wunderground v.1.15,2013-09-14 10:18:00,
2013-09-14 05:20:00,52.3,46.6,29.97,South,190,2.0,7.0,81,0.00,,,0.00,Wunderground v.1.15,2013-09-14 10:20:00,
2013-09-14 05:26:00,52.4,46.7,29.97,WSW,247,3.0,7.0,81,0.00,,,0.00,Wunderground v.1.15,2013-09-14 10:26:00,
2013-09-14 05:29:00,52.4,47.1,29.98,SW,231,3.0,3.0,82,0.00,,,0.00,Wunderground v.1.15,2013-09-14 10:29:00,
2013-09-14 05:31:00,52.4,46.7,29.98,SE,141,2.0,7.0,81,0.00,,,0.00,Wunderground v.1.15,2013-09-14 10:31:00,
2013-09-14 05:34:00,52.4,46.7,29.97,SSW,207,2.0,7.0,81,0.00,,,0.00,Wunderground v.1.15,2013-09-14 10:34:00,
2013-09-14 05:36:00,52.3,46.6,29.98,SW,224,2.0,7.0,81,0.00,,,0.00,Wunderground v.1.15,2013-09-14 10:36:00,
2013-09-14 05:38:00,52.4,46.7,29.98,SSW,210,2.0,7.0,81,0.00,,,0.00,Wunderground v.1.15,2013-09-14 10:38:00,
2013-09-14 05:40:00,52.4,46.7,29.98,SW,220,2.0,7.0,81,0.00,,,0.00,Wunderground v.1.15,2013-09-14 10:40:00,
2013-09-14 05:42:00,52.5,47.2,29.97,SSW,212,2.0,7.0,82,0.00,,,0.00,Wunderground v.1.15,2013-09-14 10:42:00,
2013-09-14 05:44:00,52.6,46.9,29.98,WSW,250,2.0,7.0,81,0.00,,,0.00,Wunderground v.1.15,2013-09-14 10:44:00,
2013-09-14 05:48:00,52.7,47.4,29.98,SSW,210,2.0,7.0,82,0.00,,,0.00,Wunderground v.1.15,2013-09-14 10:48:00,
2013-09-14 05:49:00,52.6,46.9,29.98,SSW,207,2.0,2.0,81,0.00,,,0.00,Wunderground v.1.15,2013-09-14 10:49:00,
2013-09-14 05:51:00,52.6,46.6,29.98,SW,229,2.0,7.0,80,0.00,,,0.00,Wunderground v.1.15,2013-09-14 10:51:00,
2013-09-14 05:54:00,52.6,46.9,29.98,SSW,197,2.0,7.0,81,0.00,,,0.00,Wunderground v.1.15,2013-09-14 10:54:00,
2013-09-14 05:56:00,52.6,47.3,29.98,SSE,150,2.0,7.0,82,0.00,,,0.00,Wunderground v.1.15,2013-09-14 10:56:00,
2013-09-14 05:58:00,52.6,47.3,29.98,SSW,210,2.0,7.0,82,0.00,,,0.00,Wunderground v.1.15,2013-09-14 10:58:00,
2013-09-14 06:00:00,52.6,47.6,29.98,SSE,150,1.0,7.0,83,0.00,,,0.00,Wunderground v.1.15,2013-09-14 11:00:00,
2013-09-14 06:04:00,52.4,47.1,29.98,SW,215,2.0,7.0,82,0.00,,,0.00,Wunderground v.1.15,2013-09-14 11:04:00,
2013-09-14 06:06:00,52.4,47.1,29.98,WSW,248,2.0,7.0,82,0.00,,,0.00,Wunderground v.1.15,2013-09-14 11:06:00,
2013-09-14 06:10:00,52.4,47.4,29.98,SSE,156,2.0,2.0,83,0.00,,,0.00,Wunderground v.1.15,2013-09-14 11:10:00,
2013-09-14 06:11:00,52.4,47.1,29.98,South,169,2.0,7.0,82,0.00,,,0.00,Wunderground v.1.15,2013-09-14 11:11:00,
2013-09-14 06:13:00,52.4,47.4,29.98,SSE,155,2.0,7.0,83,0.00,,,0.00,Wunderground v.1.15,2013-09-14 11:13:00,
2013-09-14 06:18:00,52.3,47.0,29.98,SSE,148,2.0,7.0,82,0.00,,,0.00,Wunderground v.1.15,2013-09-14 11:18:00,
2013-09-14 06:20:00,52.2,46.9,29.98,SE,135,2.0,2.0,82,0.00,,,0.00,Wunderground v.1.15,2013-09-14 11:20:00,
2013-09-14 06:22:00,52.2,47.2,29.98,SSW,212,2.0,7.0,83,0.00,,,0.00,Wunderground v.1.15,2013-09-14 11:22:00,
2013-09-14 06:24:00,52.1,47.1,29.98,SSE,160,2.0,7.0,83,0.00,,,0.00,Wunderground v.1.15,2013-09-14 11:24:00,
2013-09-14 06:26:00,52.0,47.0,29.98,South,183,2.0,7.0,83,0.00,,,0.00,Wunderground v.1.15,2013-09-14 11:26:00,
2013-09-14 06:28:00,52.0,46.7,29.97,SE,133,2.0,7.0,82,0.00,,,0.00,Wunderground v.1.15,2013-09-14 11:28:00,
2013-09-14 06:30:00,51.9,46.9,29.97,SE,139,2.0,2.0,83,0.00,,,0.00,Wunderground v.1.15,2013-09-14 11:30:00,
2013-09-14 06:33:00,51.7,46.7,29.97,SSW,207,1.0,7.0,83,0.00,,,0.00,Wunderground v.1.15,2013-09-14 11:33:00,
2013-09-14 06:35:00,51.5,46.2,29.97,SSW,207,1.0,7.0,82,0.00,,,0.00,Wunderground v.1.15,2013-09-14 11:35:00,
2013-09-14 06:40:00,51.3,46.0,29.97,SSW,210,1.0,7.0,82,0.00,,,0.00,Wunderground v.1.15,2013-09-14 11:40:00,
2013-09-14 06:42:00,51.3,46.3,29.97,SSW,201,2.0,7.0,83,0.00,,,0.00,Wunderground v.1.15,2013-09-14 11:42:00,
2013-09-14 06:44:00,51.2,46.2,29.97,SSW,208,2.0,7.0,83,0.00,,,0.00,Wunderground v.1.15,2013-09-14 11:44:00,
2013-09-14 06:46:00,51.1,46.1,29.97,SSW,201,2.0,7.0,83,0.00,,,0.00,Wunderground v.1.15,2013-09-14 11:46:00,
2013-09-14 06:48:00,51.0,46.0,29.97,WSW,247,2.0,7.0,83,0.00,,,0.00,Wunderground v.1.15,2013-09-14 11:48:00,
2013-09-14 06:52:00,50.9,46.2,29.97,SW,218,1.0,7.0,84,0.00,,,0.00,Wunderground v.1.15,2013-09-14 11:52:00,
2013-09-14 06:53:00,50.8,46.1,29.97,SSW,211,1.0,7.0,84,0.00,,,0.00,Wunderground v.1.15,2013-09-14 11:53:00,
2013-09-14 06:58:00,50.7,46.0,29.97,SW,221,2.0,7.0,84,0.00,,,0.00,Wunderground v.1.15,2013-09-14 11:58:00,
2013-09-14 07:00:00,50.7,46.0,29.97,SSW,194,2.0,2.0,84,0.00,,,0.00,Wunderground v.1.15,2013-09-14 12:00:00,
2013-09-14 07:02:00,50.7,46.0,29.97,SSE,158,2.0,7.0,84,0.00,,,0.00,Wunderground v.1.15,2013-09-14 12:02:00,
2013-09-14 07:06:00,50.5,45.8,29.97,SW,221,2.0,7.0,84,0.00,,,0.00,Wunderground v.1.15,2013-09-14 12:06:00,
2013-09-14 07:08:00,50.4,45.7,29.97,SW,228,1.0,7.0,84,0.00,,,0.00,Wunderground v.1.15,2013-09-14 12:08:00,
2013-09-14 07:12:00,50.3,45.6,29.97,WSW,247,1.0,7.0,84,0.00,,,0.00,Wunderground v.1.15,2013-09-14 12:12:00,
2013-09-14 07:14:00,50.3,45.3,29.97,SSW,193,1.0,7.0,83,0.00,,,0.00,Wunderground v.1.15,2013-09-14 12:14:00,
2013-09-14 07:15:00,50.2,45.2,29.97,WSW,240,2.0,7.0,83,0.00,,,0.00,Wunderground v.1.15,2013-09-14 12:15:00,
2013-09-14 07:20:00,50.3,45.3,29.97,SSE,159,2.0,2.0,83,0.00,,,0.00,Wunderground v.1.15,2013-09-14 12:20:00,
2013-09-14 07:22:00,50.3,45.6,29.98,South,175,2.0,7.0,84,0.00,,,0.00,Wunderground v.1.15,2013-09-14 12:22:00,
2013-09-14 07:24:00,50.3,45.6,29.97,SSE,158,2.0,7.0,84,0.00,,,0.00,Wunderground v.1.15,2013-09-14 12:24:00,
2013-09-14 07:28:00,50.3,45.6,29.98,SW,219,2.0,7.0,84,0.00,,,0.00,Wunderground v.1.15,2013-09-14 12:28:00,
2013-09-14 07:30:00,50.3,45.6,29.98,SSW,208,2.0,2.0,84,0.00,,,0.00,Wunderground v.1.15,2013-09-14 12:30:00,
2013-09-14 07:32:00,50.2,45.6,29.98,SW,225,2.0,7.0,84,0.00,,,0.00,Wunderground v.1.15,2013-09-14 12:32:00,
2013-09-14 07:34:00,50.2,45.6,29.98,WSW,241,1.0,7.0,84,0.00,,,0.00,Wunderground v.1.15,2013-09-14 12:34:00,
2013-09-14 07:37:00,50.2,45.6,29.98,West,267,1.0,7.0,84,0.00,,,0.00,Wunderground v.1.15,2013-09-14 12:37:00,
2013-09-14 07:39:00,50.2,45.6,29.98,SSW,210,1.0,7.0,84,0.00,,,0.00,Wunderground v.1.15,2013-09-14 12:39:00,
2013-09-14 07:42:00,50.3,46.0,29.97,SE,135,1.0,7.0,85,0.00,,,0.00,Wunderground v.1.15,2013-09-14 12:42:00,
2013-09-14 07:46:00,50.4,46.1,29.98,SW,226,2.0,7.0,85,0.00,,,0.00,Wunderground v.1.15,2013-09-14 12:46:00,
2013-09-14 07:48:00,50.6,45.9,29.98,SSW,202,2.0,7.0,84,0.00,,,0.00,Wunderground v.1.15,2013-09-14 12:48:00,
2013-09-14 07:50:00,50.8,46.1,29.97,South,177,2.0,2.0,84,0.00,,,0.00,Wunderground v.1.15,2013-09-14 12:50:00,
2013-09-14 07:54:00,51.0,46.0,29.97,SW,228,2.0,7.0,83,0.00,,,0.00,Wunderground v.1.15,2013-09-14 12:54:00,
2013-09-14 07:59:00,51.5,46.8,29.97,South,181,2.0,2.0,84,0.00,,,0.00,Wunderground v.1.15,2013-09-14 12:59:00,
2013-09-14 08:01:00,51.6,46.3,29.97,West,269,2.0,7.0,82,0.00,,,0.00,Wunderground v.1.15,2013-09-14 13:01:00,
2013-09-14 08:06:00,52.0,46.3,29.97,SSW,208,3.0,7.0,81,0.00,,,0.00,Wunderground v.1.15,2013-09-14 13:06:00,
2013-09-14 08:08:00,52.2,46.5,29.97,SSW,198,3.0,7.0,81,0.00,,,0.00,Wunderground v.1.15,2013-09-14 13:08:00,
2013-09-14 08:12:00,52.7,46.7,29.97,SSW,210,3.0,4.0,80,0.00,,,0.00,Wunderground v.1.15,2013-09-14 13:12:00,
2013-09-14 08:14:00,52.9,46.6,29.97,South,184,3.0,7.0,79,0.00,,,0.00,Wunderground v.1.15,2013-09-14 13:14:00,
2013-09-14 08:18:00,53.4,46.7,29.97,SW,228,4.0,7.0,78,0.00,,,0.00,Wunderground v.1.15,2013-09-14 13:18:00,
2013-09-14 08:19:00,53.6,46.9,29.97,South,188,4.0,7.0,78,0.00,,,0.00,Wunderground v.1.15,2013-09-14 13:19:00,
2013-09-14 08:25:00,54.1,47.0,29.97,South,176,3.0,7.0,77,0.00,,,0.00,Wunderground v.1.15,2013-09-14 13:25:00,
2013-09-14 08:28:00,54.3,46.9,29.97,SW,231,3.0,7.0,76,0.00,,,0.00,Wunderground v.1.15,2013-09-14 13:28:00,
2013-09-14 08:30:00,54.5,47.1,29.97,SSW,203,3.0,3.0,76,0.00,,,0.00,Wunderground v.1.15,2013-09-14 13:30:00,
2013-09-14 08:32:00,54.8,47.4,29.96,SSW,208,3.0,7.0,76,0.00,,,0.00,Wunderground v.1.15,2013-09-14 13:32:00,
2013-09-14 08:38:00,55.5,47.3,29.96,SW,232,3.0,7.0,74,0.00,,,0.00,Wunderground v.1.15,2013-09-14 13:38:00,
2013-09-14 08:39:00,55.7,47.5,29.96,SE,135,3.0,3.0,74,0.00,,,0.00,Wunderground v.1.15,2013-09-14 13:39:00,
2013-09-14 08:41:00,55.9,47.4,29.96,SW,218,3.0,4.0,73,0.00,,,0.00,Wunderground v.1.15,2013-09-14 13:41:00,
2013-09-14 08:43:00,56.0,47.1,29.96,SSW,210,4.0,7.0,72,0.00,,,0.00,Wunderground v.1.15,2013-09-14 13:43:00,
2013-09-14 08:47:00,56.3,46.6,29.96,SW,220,4.0,7.0,70,0.00,,,0.00,Wunderground v.1.15,2013-09-14 13:47:00,
2013-09-14 08:50:00,56.5,46.8,29.96,SW,232,4.0,7.0,70,0.00,,,0.00,Wunderground v.1.15,2013-09-14 13:50:00,
2013-09-14 08:52:00,56.6,47.3,29.96,SW,224,4.0,7.0,71,0.00,,,0.00,Wunderground v.1.15,2013-09-14 13:52:00,
2013-09-14 08:56:00,57.0,46.9,29.96,South,169,4.0,7.0,69,0.00,,,0.00,Wunderground v.1.15,2013-09-14 13:56:00,
2013-09-14 08:58:00,57.3,47.6,29.96,SSE,165,4.0,7.0,70,0.00,,,0.00,Wunderground v.1.15,2013-09-14 13:58:00,
2013-09-14 09:01:00,57.8,47.3,29.96,South,187,4.0,7.0,68,0.00,,,0.00,Wunderground v.1.15,2013-09-14 14:01:00,
2013-09-14 09:03:00,58.1,48.0,29.96,WSW,248,4.0,7.0,69,0.00,,,0.00,Wunderground v.1.15,2013-09-14 14:03:00,
2013-09-14 09:05:00,58.3,47.4,29.96,SE,139,5.0,7.0,67,0.00,,,0.00,Wunderground v.1.15,2013-09-14 14:05:00,
2013-09-14 09:10:00,58.6,46.9,29.95,SW,233,6.0,6.0,65,0.00,,,0.00,Wunderground v.1.15,2013-09-14 14:10:00,
2013-09-14 09:12:00,58.9,48.0,29.96,SSW,204,6.0,7.0,67,0.00,,,0.00,Wunderground v.1.15,2013-09-14 14:12:00,
2013-09-14 09:16:00,59.5,47.3,29.96,SSW,207,6.0,7.0,64,0.00,,,0.00,Wunderground v.1.15,2013-09-14 14:16:00,
2013-09-14 09:20:00,59.9,47.7,29.95,WSW,258,5.0,7.0,64,0.00,,,0.00,Wunderground v.1.15,2013-09-14 14:20:00,
2013-09-14 09:22:00,60.1,47.5,29.95,SSW,202,5.0,7.0,63,0.00,,,0.00,Wunderground v.1.15,2013-09-14 14:22:00,
2013-09-14 09:23:00,60.4,47.7,29.95,SSW,201,5.0,7.0,63,0.00,,,0.00,Wunderground v.1.15,2013-09-14 14:23:00,
2013-09-14 09:25:00,60.7,47.2,29.95,WSW,243,5.0,7.0,61,0.00,,,0.00,Wunderground v.1.15,2013-09-14 14:25:00,
2013-09-14 09:27:00,61.1,48.0,29.95,SW,222,5.0,7.0,62,0.00,,,0.00,Wunderground v.1.15,2013-09-14 14:27:00,
2013-09-14 09:29:00,61.4,47.4,29.95,SW,224,5.0,8.0,60,0.00,,,0.00,Wunderground v.1.15,2013-09-14 14:29:00,
2013-09-14 09:36:00,62.2,48.1,29.95,SSW,212,7.0,11.0,60,0.00,,,0.00,Wunderground v.1.15,2013-09-14 14:36:00,
2013-09-14 09:38:00,62.7,49.1,29.95,SW,214,7.0,11.0,61,0.00,,,0.00,Wunderground v.1.15,2013-09-14 14:38:00,
2013-09-14 09:42:00,63.2,48.6,29.95,SSE,158,6.0,7.0,59,0.00,,,0.00,Wunderground v.1.15,2013-09-14 14:42:00,
2013-09-14 09:43:00,63.4,48.4,29.95,WSW,248,6.0,8.0,58,0.00,,,0.00,Wunderground v.1.15,2013-09-14 14:43:00,
2013-09-14 09:45:00,63.5,48.0,29.95,WSW,238,6.0,10.0,57,0.00,,,0.00,Wunderground v.1.15,2013-09-14 14:45:00,
2013-09-14 09:49:00,63.7,48.2,29.95,South,186,6.0,6.0,57,0.00,,,0.00,Wunderground v.1.15,2013-09-14 14:49:00,
2013-09-14 09:51:00,63.9,47.9,29.95,South,187,6.0,7.0,56,0.00,,,0.00,Wunderground v.1.15,2013-09-14 14:51:00,
2013-09-14 09:56:00,64.2,47.7,29.95,SSE,165,7.0,7.0,55,0.00,,,0.00,Wunderground v.1.15,2013-09-14 14:56:00,
2013-09-14 10:00:00,64.4,47.9,29.95,SE,143,6.0,6.0,55,0.00,,,0.00,Wunderground v.1.15,2013-09-14 15:00:00,
2013-09-14 10:02:00,64.4,48.4,29.95,SSW,201,6.0,7.0,56,0.00,,,0.00,Wunderground v.1.15,2013-09-14 15:02:00,
2013-09-14 10:04:00,64.4,47.9,29.95,West,281,6.0,7.0,55,0.00,,,0.00,Wunderground v.1.15,2013-09-14 15:04:00,
2013-09-14 10:07:00,64.4,48.8,29.95,SW,224,6.0,9.0,57,0.00,,,0.00,Wunderground v.1.15,2013-09-14 15:07:00,
2013-09-14 10:09:00,64.6,49.0,29.95,SE,145,6.0,6.0,57,0.00,,,0.00,Wunderground v.1.15,2013-09-14 15:09:00,
2013-09-14 10:14:00,64.8,49.2,29.95,SW,221,5.0,7.0,57,0.00,,,0.00,Wunderground v.1.15,2013-09-14 15:14:00,
2013-09-14 10:16:00,64.7,49.1,29.95,SSW,204,5.0,7.0,57,0.00,,,0.00,Wunderground v.1.15,2013-09-14 15:16:00,
2013-09-14 10:18:00,64.8,48.7,29.95,SW,219,5.0,9.0,56,0.00,,,0.00,Wunderground v.1.15,2013-09-14 15:18:00,
2013-09-14 10:20:00,64.7,49.1,29.95,SSW,197,5.0,5.0,57,0.00,,,0.00,Wunderground v.1.15,2013-09-14 15:20:00,
2013-09-14 10:26:00,65.2,49.1,29.95,SE,128,6.0,7.0,56,0.00,,,0.00,Wunderground v.1.15,2013-09-14 15:26:00,
2013-09-14 10:27:00,65.5,49.9,29.95,SSW,204,6.0,7.0,57,0.00,,,0.00,Wunderground v.1.15,2013-09-14 15:27:00,
2013-09-14 10:29:00,65.8,49.7,29.94,SSW,208,6.0,9.0,56,0.00,,,0.00,Wunderground v.1.15,2013-09-14 15:29:00,
2013-09-14 10:31:00,65.8,50.1,29.95,South,169,6.0,9.0,57,0.00,,,0.00,Wunderground v.1.15,2013-09-14 15:31:00,
2013-09-14 10:36:00,65.9,49.3,29.94,SW,214,6.0,9.0,55,0.00,,,0.00,Wunderground v.1.15,2013-09-14 15:36:00,
2013-09-14 10:38:00,65.8,49.7,29.94,SW,226,7.0,10.0,56,0.00,,,0.00,Wunderground v.1.15,2013-09-14 15:38:00,
2013-09-14 10:42:00,66.0,50.3,29.94,South,170,6.0,7.0,57,0.00,,,0.00,Wunderground v.1.15,2013-09-14 15:42:00,
2013-09-14 10:44:00,66.2,50.0,29.94,South,191,6.0,7.0,56,0.00,,,0.00,Wunderground v.1.15,2013-09-14 15:44:00,
2013-09-14 10:46:00,66.6,50.4,29.93,SW,217,6.0,7.0,56,0.00,,,0.00,Wunderground v.1.15,2013-09-14 15:46:00,
2013-09-14 10:47:00,66.8,50.6,29.93,SSW,205,5.0,8.0,56,0.00,,,0.00,Wunderground v.1.15,2013-09-14 15:47:00,
2013-09-14 10:49:00,66.8,49.6,29.93,SW,225,5.0,7.0,54,0.00,,,0.00,Wunderground v.1.15,2013-09-14 15:49:00,
2013-09-14 10:51:00,66.7,50.0,29.93,SSW,203,5.0,7.0,55,0.00,,,0.00,Wunderground v.1.15,2013-09-14 15:51:00,
2013-09-14 10:55:00,66.7,50.0,29.93,SSW,211,5.0,7.0,55,0.00,,,0.00,Wunderground v.1.15,2013-09-14 15:55:00,
2013-09-14 10:58:00,66.5,50.8,29.93,SW,236,6.0,7.0,57,0.00,,,0.00,Wunderground v.1.15,2013-09-14 15:58:00,
2013-09-14 11:02:00,66.2,49.6,29.93,SW,226,6.0,8.0,55,0.00,,,0.00,Wunderground v.1.15,2013-09-14 16:02:00,
2013-09-14 11:04:00,66.2,50.5,29.93,SSW,200,6.0,8.0,57,0.00,,,0.00,Wunderground v.1.15,2013-09-14 16:04:00,
2013-09-14 11:06:00,66.1,49.9,29.93,SSW,207,6.0,8.0,56,0.00,,,0.00,Wunderground v.1.15,2013-09-14 16:06:00,
2013-09-14 11:09:00,65.8,49.7,29.93,SW,226,7.0,8.0,56,0.00,,,0.00,Wunderground v.1.15,2013-09-14 16:09:00,
2013-09-14 11:15:00,65.5,49.9,29.93,SW,226,7.0,8.0,57,0.00,,,0.00,Wunderground v.1.15,2013-09-14 16:15:00,
2013-09-14 11:18:00,65.5,50.8,29.93,South,190,7.0,8.0,59,0.00,,,0.00,Wunderground v.1.15,2013-09-14 16:18:00,
2013-09-14 11:20:00,65.5,50.8,29.93,SW,220,6.0,7.0,59,0.00,,,0.00,Wunderground v.1.15,2013-09-14 16:20:00,
2013-09-14 11:24:00,65.6,51.3,29.93,SW,227,6.0,7.0,60,0.00,,,0.00,Wunderground v.1.15,2013-09-14 16:24:00,
2013-09-14 11:26:00,65.8,51.1,29.93,SW,231,5.0,7.0,59,0.00,,,0.00,Wunderground v.1.15,2013-09-14 16:26:00,
2013-09-14 11:28:00,65.9,51.2,29.93,SE,146,5.0,7.0,59,0.00,,,0.00,Wunderground v.1.15,2013-09-14 16:28:00,
2013-09-14 11:30:00,66.1,51.4,29.93,SW,235,5.0,7.0,59,0.00,,,0.00,Wunderground v.1.15,2013-09-14 16:30:00,
2013-09-14 11:35:00,66.3,50.1,29.92,SSW,209,7.0,7.0,56,0.00,,,0.00,Wunderground v.1.15,2013-09-14 16:35:00,
2013-09-14 11:37:00,66.3,50.1,29.92,SW,219,7.0,8.0,56,0.00,,,0.00,Wunderground v.1.15,2013-09-14 16:37:00,
2013-09-14 11:39:00,66.4,50.7,29.92,SW,228,7.0,7.0,57,0.00,,,0.00,Wunderground v.1.15,2013-09-14 16:39:00,
2013-09-14 11:41:00,66.5,52.2,29.92,South,179,6.0,7.0,60,0.00,,,0.00,Wunderground v.1.15,2013-09-14 16:41:00,
2013-09-14 11:44:00,66.6,50.9,29.92,East,97,6.0,7.0,57,0.00,,,0.00,Wunderground v.1.15,2013-09-14 16:44:00,
2013-09-14 11:46:00,66.6,50.9,29.92,SW,235,5.0,7.0,57,0.00,,,0.00,Wunderground v.1.15,2013-09-14 16:46:00,
2013-09-14 11:48:00,66.6,50.9,29.92,SW,227,5.0,7.0,57,0.00,,,0.00,Wunderground v.1.15,2013-09-14 16:48:00,
2013-09-14 11:51:00,66.7,50.5,29.92,SW,215,5.0,16.0,56,0.00,,,0.00,Wunderground v.1.15,2013-09-14 16:51:00,
2013-09-14 11:54:00,66.9,50.7,29.92,SW,225,5.0,16.0,56,0.00,,,0.00,Wunderground v.1.15,2013-09-14 16:54:00,
2013-09-14 11:59:00,67.3,50.6,29.92,SSW,212,7.0,7.0,55,0.00,,,0.00,Wunderground v.1.15,2013-09-14 16:59:00,
2013-09-14 12:01:00,67.6,50.9,29.92,WSW,239,7.0,7.0,55,0.00,,,0.00,Wunderground v.1.15,2013-09-14 17:01:00,
2013-09-14 12:03:00,67.6,50.4,29.92,SW,233,7.0,9.0,54,0.00,,,0.00,Wunderground v.1.15,2013-09-14 17:03:00,
2013-09-14 12:10:00,67.5,50.3,29.91,SW,215,7.0,8.0,54,0.00,,,0.00,Wunderground v.1.15,2013-09-14 17:10:00,
2013-09-14 12:12:00,67.6,51.3,29.92,South,181,8.0,8.0,56,0.00,,,0.00,Wunderground v.1.15,2013-09-14 17:12:00,
2013-09-14 12:16:00,68.1,50.8,29.91,SW,232,7.0,8.0,54,0.00,,,0.00,Wunderground v.1.15,2013-09-14 17:16:00,
2013-09-14 12:17:00,68.3,52.0,29.91,SSW,208,6.0,8.0,56,0.00,,,0.00,Wunderground v.1.15,2013-09-14 17:17:00,
2013-09-14 12:23:00,69.0,52.2,29.91,SE,134,5.0,6.0,55,0.00,,,0.00,Wunderground v.1.15,2013-09-14 17:23:00,
2013-09-14 12:25:00,69.2,53.3,29.91,SE,142,4.0,6.0,57,0.00,,,0.00,Wunderground v.1.15,2013-09-14 17:25:00,
2013-09-14 12:28:00,69.5,54.1,29.90,SSW,195,4.0,6.0,58,0.00,,,0.00,Wunderground v.1.15,2013-09-14 17:28:00,
2013-09-14 12:30:00,69.7,53.3,29.91,SSW,200,4.0,8.0,56,0.00,,,0.00,Wunderground v.1.15,2013-09-14 17:30:00,
2013-09-14 12:32:00,69.6,50.7,29.91,WSW,240,5.0,9.0,51,0.00,,,0.00,Wunderground v.1.15,2013-09-14 17:32:00,
2013-09-14 12:34:00,69.4,52.0,29.91,WSW,247,5.0,9.0,54,0.00,,,0.00,Wunderground v.1.15,2013-09-14 17:34:00,
2013-09-14 12:38:00,69.6,53.7,29.91,South,190,5.0,9.0,57,0.00,,,0.00,Wunderground v.1.15,2013-09-14 17:38:00,
2013-09-14 12:39:00,69.8,51.4,29.91,WSW,237,6.0,12.0,52,0.00,,,0.00,Wunderground v.1.15,2013-09-14 17:39:00,
2013-09-14 12:43:00,70.4,53.0,29.90,SSE,167,5.0,12.0,54,0.00,,,0.00,Wunderground v.1.15,2013-09-14 17:43:00,
2013-09-14 12:45:00,70.6,52.6,29.90,WSW,247,5.0,12.0,53,0.00,,,0.00,Wunderground v.1.15,2013-09-14 17:45:00,
2013-09-14 12:48:00,70.7,51.1,29.90,SW,224,5.0,14.0,50,0.00,,,0.00,Wunderground v.1.15,2013-09-14 17:48:00,
2013-09-14 12:50:00,70.5,51.0,29.90,SSW,212,6.0,8.0,50,0.00,,,0.00,Wunderground v.1.15,2013-09-14 17:50:00,
2013-09-14 12:52:00,70.4,50.9,29.90,SW,226,7.0,13.0,50,0.00,,,0.00,Wunderground v.1.15,2013-09-14 17:52:00,
2013-09-14 12:54:00,70.3,51.3,29.90,SW,224,8.0,13.0,51,0.00,,,0.00,Wunderground v.1.15,2013-09-14 17:54:00,
2013-09-14 12:56:00,70.3,51.8,29.90,SSW,197,8.0,13.0,52,0.00,,,0.00,Wunderground v.1.15,2013-09-14 17:56:00,
2013-09-14 12:58:00,70.1,51.7,29.90,SSE,152,8.0,13.0,52,0.00,,,0.00,Wunderground v.1.15,2013-09-14 17:58:00,
2013-09-14 13:00:00,70.0,52.1,29.90,SSW,212,7.0,9.0,53,0.00,,,0.00,Wunderground v.1.15,2013-09-14 18:00:00,
2013-09-14 13:03:00,69.9,51.5,29.89,SW,219,6.0,16.0,52,0.00,,,0.00,Wunderground v.1.15,2013-09-14 18:03:00,
2013-09-14 13:10:00,70.2,51.7,29.89,SE,124,7.0,16.0,52,0.00,,,0.00,Wunderground v.1.15,2013-09-14 18:10:00,
2013-09-14 13:12:00,70.2,51.2,29.89,SSW,205,7.0,16.0,51,0.00,,,0.00,Wunderground v.1.15,2013-09-14 18:12:00,
2013-09-14 13:14:00,70.3,51.8,29.89,SSW,203,7.0,16.0,52,0.00,,,0.00,Wunderground v.1.15,2013-09-14 18:14:00,
2013-09-14 13:18:00,70.4,51.4,29.89,SSW,205,6.0,16.0,51,0.00,,,0.00,Wunderground v.1.15,2013-09-14 18:18:00,
2013-09-14 13:20:00,70.4,51.9,29.89,South,181,6.0,16.0,52,0.00,,,0.00,Wunderground v.1.15,2013-09-14 18:20:00,
2013-09-14 13:21:00,71.0,53.5,29.89,South,175,6.0,16.0,54,0.00,,,0.00,Wunderground v.1.15,2013-09-14 18:21:00,
2013-09-14 13:23:00,71.5,54.5,29.88,ESE,123,6.0,16.0,55,0.00,,,0.00,Wunderground v.1.15,2013-09-14 18:23:00,
2013-09-14 13:29:00,71.6,53.0,29.88,South,189,4.0,4.0,52,0.00,,,0.00,Wunderground v.1.15,2013-09-14 18:29:00,
2013-09-14 13:32:00,71.4,53.4,29.88,SW,236,4.0,5.0,53,0.00,,,0.00,Wunderground v.1.15,2013-09-14 18:32:00,
2013-09-14 13:36:00,71.4,52.3,29.88,SSE,160,4.0,16.0,51,0.00,,,0.00,Wunderground v.1.15,2013-09-14 18:36:00,
2013-09-14 13:38:00,71.3,51.7,29.87,SSW,204,4.0,16.0,50,0.00,,,0.00,Wunderground v.1.15,2013-09-14 18:38:00,
2013-09-14 13:40:00,71.0,50.9,29.87,SSW,208,5.0,5.0,49,0.00,,,0.00,Wunderground v.1.15,2013-09-14 18:40:00,
2013-09-14 13:43:00,70.9,51.3,29.87,SSW,196,5.0,16.0,50,0.00,,,0.00,Wunderground v.1.15,2013-09-14 18:43:00,
2013-09-14 13:45:00,70.7,51.1,29.87,SW,222,5.0,16.0,50,0.00,,,0.00,Wunderground v.1.15,2013-09-14 18:45:00,
2013-09-14 13:49:00,70.8,51.8,29.86,SSW,212,4.0,16.0,51,0.00,,,0.00,Wunderground v.1.15,2013-09-14 18:49:00,
2013-09-14 13:52:00,70.9,52.9,29.86,SSW,194,4.0,16.0,53,0.00,,,0.00,Wunderground v.1.15,2013-09-14 18:52:00,
2013-09-14 13:54:00,70.9,51.9,29.86,SSE,163,5.0,16.0,51,0.00,,,0.00,Wunderground v.1.15,2013-09-14 18:54:00,
2013-09-14 13:56:00,70.9,51.3,29.86,SSW,203,5.0,16.0,50,0.00,,,0.00,Wunderground v.1.15,2013-09-14 18:56:00,
2013-09-14 13:58:00,71.0,52.5,29.86,SSW,194,6.0,16.0,52,0.00,,,0.00,Wunderground v.1.15,2013-09-14 18:58:00,
2013-09-14 14:02:00,71.1,52.0,29.86,SW,218,6.0,7.0,51,0.00,,,0.00,Wunderground v.1.15,2013-09-14 19:02:00,
2013-09-14 14:08:00,71.1,52.6,29.86,SW,215,5.0,16.0,52,0.00,,,0.00,Wunderground v.1.15,2013-09-14 19:08:00,
2013-09-14 14:09:00,71.1,52.6,29.86,SSW,198,6.0,16.0,52,0.00,,,0.00,Wunderground v.1.15,2013-09-14 19:09:00,
2013-09-14 14:11:00,71.1,53.1,29.86,SW,231,6.0,16.0,53,0.00,,,0.00,Wunderground v.1.15,2013-09-14 19:11:00,
2013-09-14 14:18:00,71.0,53.0,29.86,SE,139,6.0,16.0,53,0.00,,,0.00,Wunderground v.1.15,2013-09-14 19:18:00,
2013-09-14 14:20:00,71.1,52.0,29.86,South,172,6.0,16.0,51,0.00,,,0.00,Wunderground v.1.15,2013-09-14 19:20:00,
2013-09-14 14:24:00,71.2,52.7,29.85,SW,230,6.0,16.0,52,0.00,,,0.00,Wunderground v.1.15,2013-09-14 19:24:00,
2013-09-14 14:26:00,71.2,53.7,29.85,SW,228,6.0,16.0,54,0.00,,,0.00,Wunderground v.1.15,2013-09-14 19:26:00,
2013-09-14 14:28:00,71.3,53.8,29.85,SW,215,6.0,16.0,54,0.00,,,0.00,Wunderground v.1.15,2013-09-14 19:28:00,
2013-09-14 14:29:00,71.3,52.8,29.85,SW,214,6.0,6.0,52,0.00,,,0.00,Wunderground v.1.15,2013-09-14 19:29:00,
2013-09-14 14:33:00,71.4,53.4,29.85,SSW,207,5.0,16.0,53,0.00,,,0.00,Wunderground v.1.15,2013-09-14 19:33:00,
2013-09-14 14:35:00,71.4,53.9,29.85,SW,229,4.0,16.0,54,0.00,,,0.00,Wunderground v.1.15,2013-09-14 19:35:00,
2013-09-14 14:40:00,71.1,52.0,29.84,WSW,239,5.0,16.0,51,0.00,,,0.00,Wunderground v.1.15,2013-09-14 19:40:00,
2013-09-14 14:42:00,71.0,52.0,29.84,SW,215,6.0,16.0,51,0.00,,,0.00,Wunderground v.1.15,2013-09-14 19:42:00,
2013-09-14 14:44:00,70.8,51.2,29.84,SW,221,7.0,16.0,50,0.00,,,0.00,Wunderground v.1.15,2013-09-14 19:44:00,
2013-09-14 14:48:00,70.5,52.0,29.84,SW,222,7.0,16.0,52,0.00,,,0.00,Wunderground v.1.15,2013-09-14 19:48:00,
2013-09-14 14:50:00,70.5,52.0,29.84,SSW,203,7.0,16.0,52,0.00,,,0.00,Wunderground v.1.15,2013-09-14 19:50:00,
2013-09-14 14:53:00,70.4,51.4,29.84,SSE,158,7.0,16.0,51,0.00,,,0.00,Wunderground v.1.15,2013-09-14 19:53:00,
2013-09-14 14:57:00,70.4,51.4,29.84,SW,215,7.0,16.0,51,0.00,,,0.00,Wunderground v.1.15,2013-09-14 19:57:00,
2013-09-14 15:00:00,70.5,52.0,29.84,South,172,7.0,7.0,52,0.00,,,0.00,Wunderground v.1.15,2013-09-14 20:00:00,
2013-09-14 15:02:00,70.6,52.6,29.84,SSW,192,6.0,16.0,53,0.00,,,0.00,Wunderground v.1.15,2013-09-14 20:02:00,
2013-09-14 15:04:00,70.7,52.7,29.84,WSW,249,6.0,16.0,53,0.00,,,0.00,Wunderground v.1.15,2013-09-14 20:04:00,
2013-09-14 15:08:00,70.8,52.8,29.84,SSW,208,5.0,16.0,53,0.00,,,0.00,Wunderground v.1.15,2013-09-14 20:08:00,
2013-09-14 15:12:00,70.7,52.7,29.83,SW,220,5.0,16.0,53,0.00,,,0.00,Wunderground v.1.15,2013-09-14 20:12:00,
2013-09-14 15:13:00,70.6,52.6,29.83,SW,236,5.0,16.0,53,0.00,,,0.00,Wunderground v.1.15,2013-09-14 20:13:00,
2013-09-14 15:15:00,70.6,53.1,29.83,SW,220,5.0,16.0,54,0.00,,,0.00,Wunderground v.1.15,2013-09-14 20:15:00,
2013-09-14 15:19:00,70.6,52.6,29.83,SW,215,5.0,5.0,53,0.00,,,0.00,Wunderground v.1.15,2013-09-14 20:19:00,
2013-09-14 15:26:00,70.8,52.3,29.83,SW,227,5.0,16.0,52,0.00,,,0.00,Wunderground v.1.15,2013-09-14 20:26:00,
2013-09-14 15:30:00,71.0,51.4,29.83,WSW,255,6.0,6.0,50,0.00,,,0.00,Wunderground v.1.15,2013-09-14 20:30:00,
2013-09-14 15:32:00,71.0,52.0,29.83,South,190,6.0,16.0,51,0.00,,,0.00,Wunderground v.1.15,2013-09-14 20:32:00,
2013-09-14 15:33:00,71.1,51.5,29.83,SSE,162,6.0,16.0,50,0.00,,,0.00,Wunderground v.1.15,2013-09-14 20:33:00,
2013-09-14 15:37:00,71.1,51.5,29.83,SSE,160,7.0,16.0,50,0.00,,,0.00,Wunderground v.1.15,2013-09-14 20:37:00,
2013-09-14 15:39:00,71.1,51.5,29.83,SSW,210,6.0,6.0,50,0.00,,,0.00,Wunderground v.1.15,2013-09-14 20:39:00,
2013-09-14 15:41:00,71.1,52.0,29.83,SW,217,6.0,16.0,51,0.00,,,0.00,Wunderground v.1.15,2013-09-14 20:41:00,
2013-09-14 15:44:00,71.1,51.5,29.82,ESE,115,5.0,16.0,50,0.00,,,0.00,Wunderground v.1.15,2013-09-14 20:44:00,
2013-09-14 15:46:00,71.2,52.1,29.82,South,190,5.0,16.0,51,0.00,,,0.00,Wunderground v.1.15,2013-09-14 20:46:00,
2013-09-14 15:50:00,71.0,52.0,29.82,SSE,162,5.0,16.0,51,0.00,,,0.00,Wunderground v.1.15,2013-09-14 20:50:00,
2013-09-14 15:52:00,71.0,53.0,29.81,SE,136,5.0,16.0,53,0.00,,,0.00,Wunderground v.1.15,2013-09-14 20:52:00,
2013-09-14 15:54:00,71.1,52.6,29.81,South,184,5.0,16.0,52,0.00,,,0.00,Wunderground v.1.15,2013-09-14 20:54:00,
2013-09-14 15:57:00,71.4,52.9,29.81,SSW,210,5.0,16.0,52,0.00,,,0.00,Wunderground v.1.15,2013-09-14 20:57:00,
2013-09-14 15:59:00,71.4,52.9,29.81,SW,224,4.0,16.0,52,0.00,,,0.00,Wunderground v.1.15,2013-09-14 20:59:00,
2013-09-14 16:01:00,71.4,52.3,29.81,SSW,210,4.0,16.0,51,0.00,,,0.00,Wunderground v.1.15,2013-09-14 21:01:00,
2013-09-14 16:04:00,71.5,53.5,29.81,South,181,4.0,16.0,53,0.00,,,0.00,Wunderground v.1.15,2013-09-14 21:04:00,
2013-09-14 16:08:00,71.5,51.3,29.81,SW,228,5.0,16.0,49,0.00,,,0.00,Wunderground v.1.15,2013-09-14 21:08:00,
2013-09-14 16:10:00,71.3,50.6,29.81,WSW,250,5.0,16.0,48,0.00,,,0.00,Wunderground v.1.15,2013-09-14 21:10:00,
2013-09-14 16:12:00,71.2,51.6,29.81,SW,232,5.0,16.0,50,0.00,,,0.00,Wunderground v.1.15,2013-09-14 21:12:00,
2013-09-14 16:14:00,71.1,51.0,29.81,WSW,250,5.0,16.0,49,0.00,,,0.00,Wunderground v.1.15,2013-09-14 21:14:00,
2013-09-14 16:16:00,71.1,52.6,29.81,South,180,5.0,16.0,52,0.00,,,0.00,Wunderground v.1.15,2013-09-14 21:16:00,
2013-09-14 16:17:00,71.1,52.0,29.81,SSW,208,5.0,16.0,51,0.00,,,0.00,Wunderground v.1.15,2013-09-14 21:17:00,
2013-09-14 16:19:00,71.1,52.6,29.81,SW,218,4.0,16.0,52,0.00,,,0.00,Wunderground v.1.15,2013-09-14 21:19:00,
2013-09-14 16:21:00,71.1,52.6,29.81,South,188,4.0,16.0,52,0.00,,,0.00,Wunderground v.1.15,2013-09-14 21:21:00,
2013-09-14 16:23:00,71.1,52.6,29.81,SSW,207,3.0,16.0,52,0.00,,,0.00,Wunderground v.1.15,2013-09-14 21:23:00,
2013-09-14 16:26:00,71.1,53.1,29.81,South,190,3.0,16.0,53,0.00,,,0.00,Wunderground v.1.15,2013-09-14 21:26:00,
2013-09-14 16:30:00,71.2,53.7,29.80,SSE,165,3.0,3.0,54,0.00,,,0.00,Wunderground v.1.15,2013-09-14 21:30:00,
2013-09-14 16:32:00,71.2,54.7,29.80,ESE,113,3.0,4.0,56,0.00,,,0.00,Wunderground v.1.15,2013-09-14 21:32:00,
2013-09-14 16:34:00,71.4,54.9,29.80,SSE,165,3.0,16.0,56,0.00,,,0.00,Wunderground v.1.15,2013-09-14 21:34:00,
2013-09-14 16:36:00,71.4,54.4,29.80,SSW,197,3.0,16.0,55,0.00,,,0.00,Wunderground v.1.15,2013-09-14 21:36:00,
2013-09-14 16:37:00,71.6,54.6,29.80,SW,227,3.0,16.0,55,0.00,,,0.00,Wunderground v.1.15,2013-09-14 21:37:00,
2013-09-14 16:39:00,71.7,54.2,29.80,SW,224,3.0,16.0,54,0.00,,,0.00,Wunderground v.1.15,2013-09-14 21:39:00,
2013-09-14 16:41:00,71.8,53.2,29.80,SSE,150,3.0,16.0,52,0.00,,,0.00,Wunderground v.1.15,2013-09-14 21:41:00,
2013-09-14 16:43:00,71.8,54.8,29.80,SE,136,3.0,16.0,55,0.00,,,0.00,Wunderground v.1.15,2013-09-14 21:43:00,
2013-09-14 16:45:00,71.9,54.9,29.80,South,177,3.0,16.0,55,0.00,,,0.00,Wunderground v.1.15,2013-09-14 21:45:00,
2013-09-14 16:50:00,71.8,54.3,29.79,SSW,200,3.0,3.0,54,0.00,,,0.00,Wunderground v.1.15,2013-09-14 21:50:00,
2013-09-14 16:52:00,71.8,53.7,29.79,South,169,3.0,16.0,53,0.00,,,0.00,Wunderground v.1.15,2013-09-14 21:52:00,
2013-09-14 16:54:00,71.7,53.7,29.79,SW,228,3.0,16.0,53,0.00,,,0.00,Wunderground v.1.15,2013-09-14 21:54:00,
2013-09-14 16:56:00,71.7,52.6,29.79,SSW,207,3.0,16.0,51,0.00,,,0.00,Wunderground v.1.15,2013-09-14 21:56:00,
2013-09-14 16:59:00,71.5,52.9,29.80,SW,229,3.0,16.0,52,0.00,,,0.00,Wunderground v.1.15,2013-09-14 21:59:00,
2013-09-14 17:01:00,71.4,52.3,29.80,WSW,239,4.0,16.0,51,0.00,,,0.00,Wunderground v.1.15,2013-09-14 22:01:00,
2013-09-14 17:05:00,71.1,54.1,29.80,WSW,249,4.0,16.0,55,0.00,,,0.00,Wunderground v.1.15,2013-09-14 22:05:00,
2013-09-14 17:08:00,70.6,54.1,29.80,SSW,200,4.0,16.0,56,0.00,,,0.00,Wunderground v.1.15,2013-09-14 22:08:00,
2013-09-14 17:12:00,69.6,55.1,29.80,SW,218,4.0,6.0,60,0.00,,,0.00,Wunderground v.1.15,2013-09-14 22:12:00,
2013-09-14 17:14:00,69.2,55.2,29.80,SSW,204,4.0,16.0,61,0.00,,,0.00,Wunderground v.1.15,2013-09-14 22:14:00,
2013-09-14 17:20:00,68.8,54.3,29.80,SSW,212,4.0,16.0,60,0.00,,,0.00,Wunderground v.1.15,2013-09-14 22:20:00,
2013-09-14 17:21:00,68.8,55.7,29.80,SSW,208,4.0,16.0,63,0.00,,,0.00,Wunderground v.1.15,2013-09-14 22:21:00,
2013-09-14 17:23:00,68.7,54.7,29.80,SSE,166,5.0,16.0,61,0.00,,,0.00,Wunderground v.1.15,2013-09-14 22:23:00,
2013-09-14 17:25:00,68.7,54.7,29.79,SSE,151,5.0,16.0,61,0.00,,,0.00,Wunderground v.1.15,2013-09-14 22:25:00,
2013-09-14 17:27:00,68.6,54.6,29.80,SSW,212,4.0,16.0,61,0.00,,,0.00,Wunderground v.1.15,2013-09-14 22:27:00,
2013-09-14 17:34:00,68.4,55.3,29.80,SW,219,4.0,16.0,63,0.00,,,0.00,Wunderground v.1.15,2013-09-14 22:34:00,
2013-09-14 17:44:00,68.0,54.9,29.80,WSW,246,4.0,16.0,63,0.00,,,0.00,Wunderground v.1.15,2013-09-14 22:44:00,
2013-09-14 17:49:00,67.9,56.1,29.79,SE,131,3.0,3.0,66,0.00,,,0.00,Wunderground v.1.15,2013-09-14 22:49:00,
2013-09-14 17:51:00,67.9,56.5,29.79,SSW,202,2.0,16.0,67,0.00,,,0.00,Wunderground v.1.15,2013-09-14 22:51:00,
2013-09-14 17:53:00,67.9,57.4,29.79,SE,135,2.0,16.0,69,0.00,,,0.00,Wunderground v.1.15,2013-09-14 22:53:00,
2013-09-14 17:56:00,67.8,57.3,29.79,SE,139,2.0,16.0,69,0.00,,,0.00,Wunderground v.1.15,2013-09-14 22:56:00,
2013-09-14 17:58:00,67.7,57.6,29.78,ESE,118,2.0,16.0,70,0.00,,,0.00,Wunderground v.1.15,2013-09-14 22:58:00,
2013-09-14 18:00:00,67.5,57.0,29.78,SSE,151,2.0,2.0,69,0.00,,,0.00,Wunderground v.1.15,2013-09-14 23:00:00,
2013-09-14 18:02:00,67.5,57.4,29.78,West,278,2.0,16.0,70,0.00,,,0.00,Wunderground v.1.15,2013-09-14 23:02:00,
2013-09-14 18:04:00,67.3,57.2,29.78,SE,139,2.0,16.0,70,0.00,,,0.00,Wunderground v.1.15,2013-09-14 23:04:00,
2013-09-14 18:08:00,67.1,56.2,29.78,SW,232,3.0,16.0,68,0.00,,,0.00,Wunderground v.1.15,2013-09-14 23:08:00,
2013-09-14 18:09:00,67.0,56.5,29.78,ESE,105,3.0,16.0,69,0.00,,,0.00,Wunderground v.1.15,2013-09-14 23:09:00,
2013-09-14 18:13:00,66.6,56.1,29.78,SW,229,4.0,16.0,69,0.00,,,0.00,Wunderground v.1.15,2013-09-14 23:13:00,
2013-09-14 18:15:00,66.4,56.3,29.78,SW,231,4.0,16.0,70,0.00,,,0.00,Wunderground v.1.15,2013-09-14 23:15:00,
2013-09-14 18:20:00,66.0,56.7,29.78,SSW,207,3.0,3.0,72,0.00,,,0.00,Wunderground v.1.15,2013-09-14 23:20:00,
2013-09-14 18:22:00,65.8,56.5,29.78,SW,219,3.0,16.0,72,0.00,,,0.00,Wunderground v.1.15,2013-09-14 23:22:00,
2013-09-14 18:24:00,65.6,55.9,29.78,SW,228,3.0,16.0,71,0.00,,,0.00,Wunderground v.1.15,2013-09-14 23:24:00,
2013-09-14 18:26:00,65.4,56.1,29.78,SSW,195,3.0,16.0,72,0.00,,,0.00,Wunderground v.1.15,2013-09-14 23:26:00,
2013-09-14 18:29:00,65.2,56.3,29.78,SE,139,4.0,4.0,73,0.00,,,0.00,Wunderground v.1.15,2013-09-14 23:29:00,
2013-09-14 18:31:00,65.1,56.6,29.78,SW,221,4.0,16.0,74,0.00,,,0.00,Wunderground v.1.15,2013-09-14 23:31:00,
2013-09-14 18:35:00,65.1,56.6,29.77,SE,145,3.0,16.0,74,0.00,,,0.00,Wunderground v.1.15,2013-09-14 23:35:00,
2013-09-14 18:37:00,65.0,57.6,29.77,SSE,148,3.0,16.0,77,0.00,,,0.00,Wunderground v.1.15,2013-09-14 23:37:00,
2013-09-14 18:40:00,65.0,57.6,29.77,SSE,149,2.0,16.0,77,0.00,,,0.00,Wunderground v.1.15,2013-09-14 23:40:00,
2013-09-14 18:42:00,64.9,57.9,29.77,South,169,2.0,16.0,78,0.00,,,0.00,Wunderground v.1.15,2013-09-14 23:42:00,
2013-09-14 18:48:00,64.7,57.7,29.77,SSE,148,3.0,16.0,78,0.00,,,0.00,Wunderground v.1.15,2013-09-14 23:48:00,
2013-09-14 18:50:00,64.7,58.0,29.77,SSE,158,3.0,16.0,79,0.00,,,0.00,Wunderground v.1.15,2013-09-14 23:50:00,
2013-09-14 18:53:00,64.7,57.7,29.76,SE,141,3.0,16.0,78,0.00,,,0.00,Wunderground v.1.15,2013-09-14 23:53:00,
2013-09-14 18:55:00,64.7,57.3,29.76,SSE,166,3.0,16.0,77,0.00,,,0.00,Wunderground v.1.15,2013-09-14 23:55:00,
2013-09-14 18:57:00,64.7,57.7,29.76,SE,135,3.0,16.0,78,0.00,,,0.00,Wunderground v.1.15,2013-09-14 23:57:00,
2013-09-14 19:02:00,64.7,57.7,29.76,ESE,105,3.0,16.0,78,0.00,,,0.00,Wunderground v.1.15,2013-09-15 00:02:00,
2013-09-14 19:04:00,64.7,58.0,29.76,SSW,208,2.0,16.0,79,0.00,,,0.00,Wunderground v.1.15,2013-09-15 00:04:00,
2013-09-14 19:06:00,64.6,57.9,29.76,ESE,107,2.0,16.0,79,0.00,,,0.00,Wunderground v.1.15,2013-09-15 00:06:00,
2013-09-14 19:08:00,64.5,57.8,29.76,ESE,122,2.0,16.0,79,0.00,,,0.00,Wunderground v.1.15,2013-09-15 00:08:00,
2013-09-14 19:10:00,64.5,57.8,29.76,SE,143,2.0,16.0,79,0.00,,,0.00,Wunderground v.1.15,2013-09-15 00:10:00,
2013-09-14 19:13:00,64.4,57.7,29.75,SSE,148,3.0,16.0,79,0.00,,,0.00,Wunderground v.1.15,2013-09-15 00:13:00,
2013-09-14 19:15:00,64.4,57.4,29.75,SE,135,3.0,16.0,78,0.00,,,0.00,Wunderground v.1.15,2013-09-15 00:15:00,
2013-09-14 19:19:00,64.4,57.4,29.75,SE,136,4.0,16.0,78,0.00,,,0.00,Wunderground v.1.15,2013-09-15 00:19:00,
2013-09-14 19:22:00,64.4,57.0,29.75,South,187,4.0,16.0,77,0.00,,,0.00,Wunderground v.1.15,2013-09-15 00:22:00,
2013-09-14 19:26:00,64.5,57.1,29.75,SSE,160,3.0,16.0,77,0.00,,,0.00,Wunderground v.1.15,2013-09-15 00:26:00,
2013-09-14 19:28:00,64.5,57.5,29.75,SE,126,3.0,16.0,78,0.00,,,0.00,Wunderground v.1.15,2013-09-15 00:28:00,
2013-09-14 19:30:00,64.5,57.1,29.75,South,169,2.0,2.0,77,0.00,,,0.00,Wunderground v.1.15,2013-09-15 00:30:00,
2013-09-14 19:32:00,64.5,56.8,29.75,South,174,2.0,16.0,76,0.00,,,0.00,Wunderground v.1.15,2013-09-15 00:32:00,
2013-09-14 19:33:00,64.5,57.1,29.76,SW,226,2.0,16.0,77,0.00,,,0.00,Wunderground v.1.15,2013-09-15 00:33:00,
2013-09-14 19:35:00,64.4,56.3,29.76,SE,134,2.0,16.0,75,0.00,,,0.00,Wunderground v.1.15,2013-09-15 00:35:00,
2013-09-14 19:39:00,64.3,56.6,29.75,SSW,195,3.0,3.0,76,0.00,,,0.00,Wunderground v.1.15,2013-09-15 00:39:00,
2013-09-14 19:41:00,64.3,56.9,29.75,SE,137,3.0,16.0,77,0.00,,,0.00,Wunderground v.1.15,2013-09-15 00:41:00,
2013-09-14 19:46:00,64.4,57.0,29.75,SE,134,3.0,16.0,77,0.00,,,0.00,Wunderground v.1.15,2013-09-15 00:46:00,
2013-09-14 19:48:00,64.4,57.0,29.75,SSE,150,3.0,16.0,77,0.00,,,0.00,Wunderground v.1.15,2013-09-15 00:48:00,
2013-09-14 19:50:00,64.4,57.0,29.75,SE,134,3.0,16.0,77,0.00,,,0.00,Wunderground v.1.15,2013-09-15 00:50:00,
2013-09-14 19:55:00,64.5,57.1,29.75,SE,145,3.0,16.0,77,0.00,,,0.00,Wunderground v.1.15,2013-09-15 00:55:00,
2013-09-14 19:57:00,64.5,56.8,29.75,SW,215,3.0,16.0,76,0.00,,,0.00,Wunderground v.1.15,2013-09-15 00:57:00,
2013-09-14 20:01:00,64.5,56.8,29.75,SSW,210,2.0,5.0,76,0.00,,,0.00,Wunderground v.1.15,2013-09-15 01:01:00,
2013-09-14 20:06:00,64.6,55.7,29.75,SSE,148,3.0,16.0,73,0.00,,,0.00,Wunderground v.1.15,2013-09-15 01:06:00,
2013-09-14 20:10:00,64.6,55.7,29.75,SSW,211,3.0,3.0,73,0.00,,,0.00,Wunderground v.1.15,2013-09-15 01:10:00,
2013-09-14 20:12:00,64.6,56.5,29.75,SSW,194,3.0,5.0,75,0.00,,,0.00,Wunderground v.1.15,2013-09-15 01:12:00,
2013-09-14 20:14:00,64.6,56.5,29.75,SSW,208,3.0,16.0,75,0.00,,,0.00,Wunderground v.1.15,2013-09-15 01:14:00,
2013-09-14 20:16:00,64.6,55.7,29.75,SW,221,3.0,16.0,73,0.00,,,0.00,Wunderground v.1.15,2013-09-15 01:16:00,
2013-09-14 20:19:00,64.6,56.1,29.75,South,179,3.0,16.0,74,0.00,,,0.00,Wunderground v.1.15,2013-09-15 01:19:00,
2013-09-14 20:21:00,64.7,55.8,29.75,SSW,203,4.0,16.0,73,0.00,,,0.01,Wunderground v.1.15,2013-09-15 01:21:00,
2013-09-14 20:26:00,64.7,55.8,29.75,SSW,198,4.0,16.0,73,0.00,,,0.01,Wunderground v.1.15,2013-09-15 01:26:00,
2013-09-14 20:30:00,64.8,55.6,29.75,South,170,5.0,5.0,72,0.00,,,0.01,Wunderground v.1.15,2013-09-15 01:30:00,
2013-09-14 20:34:00,64.8,55.9,29.75,South,173,4.0,16.0,73,0.00,,,0.01,Wunderground v.1.15,2013-09-15 01:34:00,
2013-09-14 20:36:00,64.8,55.9,29.74,SSE,156,4.0,16.0,73,0.00,,,0.01,Wunderground v.1.15,2013-09-15 01:36:00,
2013-09-14 20:37:00,64.8,55.9,29.74,SW,232,4.0,16.0,73,0.00,,,0.01,Wunderground v.1.15,2013-09-15 01:37:00,
2013-09-14 20:41:00,64.8,55.9,29.74,SSE,155,3.0,16.0,73,0.00,,,0.01,Wunderground v.1.15,2013-09-15 01:41:00,
2013-09-14 20:45:00,64.8,56.3,29.74,SSW,208,3.0,16.0,74,0.00,,,0.01,Wunderground v.1.15,2013-09-15 01:45:00,
2013-09-14 20:48:00,64.8,55.9,29.74,WSW,248,3.0,16.0,73,0.00,,,0.01,Wunderground v.1.15,2013-09-15 01:48:00,
2013-09-14 20:50:00,64.8,55.6,29.74,SSW,197,3.0,3.0,72,0.00,,,0.01,Wunderground v.1.15,2013-09-15 01:50:00,
2013-09-14 20:52:00,64.8,55.9,29.74,WSW,248,3.0,6.0,73,0.00,,,0.01,Wunderground v.1.15,2013-09-15 01:52:00,
2013-09-14 20:54:00,64.8,55.9,29.74,WSW,248,4.0,16.0,73,0.00,,,0.01,Wunderground v.1.15,2013-09-15 01:54:00,
2013-09-14 20:56:00,64.8,56.3,29.74,SSW,205,3.0,16.0,74,0.00,,,0.01,Wunderground v.1.15,2013-09-15 01:56:00,
2013-09-14 20:58:00,64.8,56.3,29.74,SE,135,3.0,16.0,74,0.00,,,0.01,Wunderground v.1.15,2013-09-15 01:58:00,
2013-09-14 20:59:00,64.9,56.8,29.74,SE,145,3.0,16.0,75,0.00,,,0.01,Wunderground v.1.15,2013-09-15 01:59:00,
2013-09-14 21:06:00,64.8,56.3,29.74,SSW,198,3.0,16.0,74,0.00,,,0.01,Wunderground v.1.15,2013-09-15 02:06:00,
2013-09-14 21:10:00,64.8,55.6,29.74,SW,231,3.0,16.0,72,0.00,,,0.01,Wunderground v.1.15,2013-09-15 02:10:00,
2013-09-14 21:12:00,64.7,55.8,29.74,SSW,194,3.0,16.0,73,0.00,,,0.01,Wunderground v.1.15,2013-09-15 02:12:00,
2013-09-14 21:13:00,64.7,55.5,29.74,SE,143,4.0,16.0,72,0.00,,,0.01,Wunderground v.1.15,2013-09-15 02:13:00,
2013-09-14 21:17:00,64.6,55.4,29.74,SW,229,4.0,16.0,72,0.00,,,0.01,Wunderground v.1.15,2013-09-15 02:17:00,
2013-09-14 21:19:00,64.6,55.4,29.74,South,185,4.0,16.0,72,0.00,,,0.01,Wunderground v.1.15,2013-09-15 02:19:00,
2013-09-14 21:22:00,64.6,55.7,29.75,SSW,198,4.0,16.0,73,0.00,,,0.01,Wunderground v.1.15,2013-09-15 02:22:00,
2013-09-14 21:24:00,64.6,55.7,29.75,South,187,4.0,16.0,73,0.00,,,0.01,Wunderground v.1.15,2013-09-15 02:24:00,
2013-09-14 21:28:00,64.5,56.0,29.75,SSW,204,4.0,16.0,74,0.00,,,0.02,Wunderground v.1.15,2013-09-15 02:28:00,
2013-09-14 21:30:00,64.2,55.7,29.75,South,179,4.0,4.0,74,0.00,,,0.02,Wunderground v.1.15,2013-09-15 02:30:00,
2013-09-14 21:32:00,64.0,55.9,29.75,SSW,206,4.0,16.0,75,0.00,,,0.02,Wunderground v.1.15,2013-09-15 02:32:00,
2013-09-14 21:33:00,63.8,55.7,29.74,SSW,207,4.0,16.0,75,0.00,,,0.02,Wunderground v.1.15,2013-09-15 02:33:00,
2013-09-14 21:35:00,63.6,55.9,29.75,South,188,4.0,16.0,76,0.00,,,0.02,Wunderground v.1.15,2013-09-15 02:35:00,
2013-09-14 21:39:00,63.4,55.7,29.74,SSW,203,4.0,4.0,76,0.00,,,0.02,Wunderground v.1.15,2013-09-15 02:39:00,
2013-09-14 21:41:00,63.3,55.6,29.75,SW,215,4.0,16.0,76,0.00,,,0.02,Wunderground v.1.15,2013-09-15 02:41:00,
2013-09-14 21:46:00,63.4,55.7,29.75,SSE,158,5.0,16.0,76,0.00,,,0.02,Wunderground v.1.15,2013-09-15 02:46:00,
2013-09-14 21:48:00,63.4,55.7,29.75,SSW,212,4.0,16.0,76,0.00,,,0.02,Wunderground v.1.15,2013-09-15 02:48:00,
2013-09-14 21:50:00,63.5,55.4,29.75,SW,228,5.0,16.0,75,0.00,,,0.02,Wunderground v.1.15,2013-09-15 02:50:00,
2013-09-14 21:52:00,63.6,55.9,29.75,SSW,204,5.0,16.0,76,0.00,,,0.02,Wunderground v.1.15,2013-09-15 02:52:00,
2013-09-14 21:55:00,63.7,55.6,29.75,SW,215,4.0,16.0,75,0.00,,,0.02,Wunderground v.1.15,2013-09-15 02:55:00,
2013-09-14 21:57:00,63.7,55.6,29.75,SSW,211,4.0,16.0,75,0.00,,,0.02,Wunderground v.1.15,2013-09-15 02:57:00,
2013-09-14 22:01:00,63.7,56.0,29.75,SW,219,4.0,16.0,76,0.00,,,0.02,Wunderground v.1.15,2013-09-15 03:01:00,
2013-09-14 22:04:00,63.8,55.7,29.75,SW,224,4.0,16.0,75,0.00,,,0.02,Wunderground v.1.15,2013-09-15 03:04:00,
2013-09-14 22:06:00,63.9,55.8,29.74,SW,225,4.0,16.0,75,0.00,,,0.02,Wunderground v.1.15,2013-09-15 03:06:00,
2013-09-14 22:08:00,63.9,55.8,29.74,SW,228,4.0,16.0,75,0.00,,,0.02,Wunderground v.1.15,2013-09-15 03:08:00,
2013-09-14 22:10:00,64.0,55.5,29.74,SSW,198,4.0,4.0,74,0.00,,,0.02,Wunderground v.1.15,2013-09-15 03:10:00,
2013-09-14 22:12:00,64.0,55.5,29.74,SSE,156,4.0,16.0,74,0.00,,,0.02,Wunderground v.1.15,2013-09-15 03:12:00,
2013-09-14 22:14:00,64.1,55.6,29.75,SW,215,4.0,16.0,74,0.00,,,0.02,Wunderground v.1.15,2013-09-15 03:14:00,
2013-09-14 22:17:00,64.1,55.6,29.74,SW,233,4.0,16.0,74,0.00,,,0.02,Wunderground v.1.15,2013-09-15 03:17:00,
2013-09-14 22:21:00,64.1,55.6,29.74,SSE,152,4.0,16.0,74,0.00,,,0.02,Wunderground v.1.15,2013-09-15 03:21:00,
2013-09-14 22:23:00,64.2,55.7,29.74,SW,224,4.0,16.0,74,0.00,,,0.02,Wunderground v.1.15,2013-09-15 03:23:00,
2013-09-14 22:28:00,64.2,55.4,29.74,SW,215,5.0,16.0,73,0.00,,,0.02,Wunderground v.1.15,2013-09-15 03:28:00,
2013-09-14 22:30:00,64.2,55.7,29.74,SSW,198,5.0,5.0,74,0.00,,,0.02,Wunderground v.1.15,2013-09-15 03:30:00,
2013-09-14 22:36:00,64.2,55.7,29.74,SW,221,6.0,16.0,74,0.00,,,0.02,Wunderground v.1.15,2013-09-15 03:36:00,
2013-09-14 22:37:00,64.1,55.6,29.74,SW,229,6.0,16.0,74,0.00,,,0.02,Wunderground v.1.15,2013-09-15 03:37:00,
2013-09-14 22:39:00,64.1,55.6,29.74,SSW,195,6.0,16.0,74,0.00,,,0.02,Wunderground v.1.15,2013-09-15 03:39:00,
2013-09-14 22:41:00,64.1,55.6,29.74,SSW,201,6.0,16.0,74,0.00,,,0.02,Wunderground v.1.15,2013-09-15 03:41:00,
2013-09-14 22:43:00,64.1,55.6,29.74,South,185,6.0,16.0,74,0.00,,,0.02,Wunderground v.1.15,2013-09-15 03:43:00,
2013-09-14 22:45:00,64.1,55.6,29.74,SSE,152,6.0,16.0,74,0.00,,,0.02,Wunderground v.1.15,2013-09-15 03:45:00,
2013-09-14 22:52:00,64.1,55.6,29.74,SW,228,5.0,16.0,74,0.00,,,0.02,Wunderground v.1.15,2013-09-15 03:52:00,
2013-09-14 22:54:00,64.0,55.5,29.74,SSE,165,6.0,16.0,74,0.00,,,0.02,Wunderground v.1.15,2013-09-15 03:54:00,
2013-09-14 22:56:00,64.0,55.9,29.74,SSW,212,6.0,16.0,75,0.00,,,0.02,Wunderground v.1.15,2013-09-15 03:56:00,
2013-09-14 22:58:00,64.0,55.5,29.74,SW,234,6.0,16.0,74,0.00,,,0.02,Wunderground v.1.15,2013-09-15 03:58:00,
2013-09-14 23:01:00,63.9,55.8,29.74,SW,221,6.0,16.0,75,0.00,,,0.02,Wunderground v.1.15,2013-09-15 04:01:00,
2013-09-14 23:05:00,63.8,55.7,29.74,WSW,241,5.0,16.0,75,0.00,,,0.02,Wunderground v.1.15,2013-09-15 04:05:00,
2013-09-14 23:08:00,63.8,55.7,29.74,SW,224,5.0,16.0,75,0.00,,,0.02,Wunderground v.1.15,2013-09-15 04:08:00,
2013-09-14 23:12:00,63.7,56.0,29.74,South,174,5.0,16.0,76,0.00,,,0.02,Wunderground v.1.15,2013-09-15 04:12:00,
2013-09-14 23:14:00,63.7,55.6,29.75,SSE,166,5.0,16.0,75,0.00,,,0.02,Wunderground v.1.15,2013-09-15 04:14:00,
2013-09-14 23:16:00,63.7,56.0,29.74,SW,218,5.0,16.0,76,0.00,,,0.02,Wunderground v.1.15,2013-09-15 04:16:00,
2013-09-14 23:20:00,63.7,56.0,29.74,SSW,193,5.0,5.0,76,0.00,,,0.02,Wunderground v.1.15,2013-09-15 04:20:00,
2013-09-14 23:21:00,63.7,55.6,29.74,SW,229,6.0,7.0,75,0.00,,,0.02,Wunderground v.1.15,2013-09-15 04:21:00,
2013-09-14 23:23:00,63.8,56.1,29.74,SW,229,5.0,16.0,76,0.00,,,0.02,Wunderground v.1.15,2013-09-15 04:23:00,
2013-09-14 23:30:00,63.7,56.0,29.74,SSW,201,5.0,5.0,76,0.00,,,0.02,Wunderground v.1.15,2013-09-15 04:30:00,
2013-09-14 23:34:00,63.7,56.0,29.74,SW,221,5.0,16.0,76,0.00,,,0.02,Wunderground v.1.15,2013-09-15 04:34:00,
2013-09-14 23:36:00,63.7,56.0,29.75,SW,224,5.0,16.0,76,0.00,,,0.02,Wunderground v.1.15,2013-09-15 04:36:00,
2013-09-14 23:38:00,63.6,55.9,29.74,WSW,239,5.0,16.0,76,0.00,,,0.02,Wunderground v.1.15,2013-09-15 04:38:00,
2013-09-14 23:40:00,63.6,55.9,29.74,WSW,238,5.0,5.0,76,0.00,,,0.02,Wunderground v.1.15,2013-09-15 04:40:00,
2013-09-14 23:41:00,63.6,55.9,29.74,SSW,208,4.0,16.0,76,0.00,,,0.02,Wunderground v.1.15,2013-09-15 04:41:00,
2013-09-14 23:45:00,63.6,55.9,29.74,SW,235,4.0,16.0,76,0.00,,,0.02,Wunderground v.1.15,2013-09-15 04:45:00,
2013-09-14 23:47:00,63.6,56.3,29.74,WSW,249,4.0,16.0,77,0.00,,,0.02,Wunderground v.1.15,2013-09-15 04:47:00,
2013-09-14 23:49:00,63.6,56.3,29.74,SSW,199,3.0,16.0,77,0.00,,,0.02,Wunderground v.1.15,2013-09-15 04:49:00,
2013-09-14 23:52:00,63.6,55.9,29.74,South,181,3.0,16.0,76,0.00,,,0.02,Wunderground v.1.15,2013-09-15 04:52:00,
2013-09-14 23:54:00,63.6,56.3,29.74,ESE,120,3.0,16.0,77,0.00,,,0.02,Wunderground v.1.15,2013-09-15 04:54:00,
2013-09-14 23:58:00,63.7,56.4,29.74,SSW,200,3.0,16.0,77,0.00,,,0.02,Wunderground v.1.15,2013-09-15 04:58:00,